createdAt,value
2022-12-18T00:04:32.903Z,100113.83
2022-12-18T00:09:40.325Z,100118.48
2022-12-18T00:14:45.129Z,100122.48
2022-12-18T00:19:46.900Z,100119.00
2022-12-18T00:24:49.438Z,100124.66
2022-12-18T00:29:51.309Z,100128.48
2022-12-18T00:34:53.208Z,100137.36
2022-12-18T00:39:55.043Z,100147.39
2022-12-18T00:44:56.814Z,100151.30
2022-12-18T00:49:58.724Z,100157.34
2022-12-18T00:55:05.862Z,100162.45
2022-12-18T01:00:11.945Z,100161.38
2022-12-18T01:05:14.916Z,100176.50
2022-12-18T01:10:16.797Z,100183.46
2022-12-18T01:15:19.957Z,100182.52
2022-12-18T01:20:21.854Z,100180.07
2022-12-18T01:25:23.643Z,100177.34
2022-12-18T01:30:26.470Z,100180.20
2022-12-18T01:35:28.537Z,100188.05
2022-12-18T01:40:30.334Z,100194.19
2022-12-18T01:45:33.229Z,100199.86
2022-12-18T01:50:39.549Z,100206.61
2022-12-18T01:55:46.461Z,100213.38
2022-12-18T02:00:48.463Z,100222.73
2022-12-18T02:06:12.976Z,100230.34
2022-12-18T02:11:19.877Z,100233.73
2022-12-18T02:16:47.944Z,100237.44
2022-12-18T02:22:03.456Z,100243.52
2022-12-18T02:27:10.147Z,100246.38
2022-12-18T02:32:18.669Z,100250.61
2022-12-18T02:37:22.588Z,100253.35
2022-12-18T02:42:25.451Z,100245.65
2022-12-18T02:47:32.365Z,100258.20
2022-12-18T02:52:56.205Z,100267.80
2022-12-18T02:58:33.654Z,100282.17
2022-12-18T03:03:48.634Z,100293.77
2022-12-18T03:08:55.179Z,100298.89
2022-12-18T03:14:00.399Z,100297.90
2022-12-18T03:19:17.045Z,100297.88
2022-12-18T03:24:21.349Z,100302.51
2022-12-18T03:29:37.049Z,100303.50
2022-12-18T03:34:43.781Z,100317.86
2022-12-18T03:39:47.712Z,100322.74
2022-12-18T03:45:11.195Z,100316.14
2022-12-18T03:50:28.342Z,100323.77
2022-12-18T03:55:35.656Z,100326.74
2022-12-18T04:00:40.166Z,100328.84
2022-12-18T04:05:45.082Z,100338.73
2022-12-18T04:10:47.742Z,100344.60
2022-12-18T04:15:49.715Z,100351.56
2022-12-18T04:20:52.823Z,100351.46
2022-12-18T04:25:55.234Z,100351.66
2022-12-18T04:31:09.433Z,100357.71
2022-12-18T04:36:13.372Z,100359.22
2022-12-18T04:41:15.728Z,100363.08
2022-12-18T04:46:18.756Z,100374.19
2022-12-18T04:51:26.121Z,100387.05
2022-12-18T04:56:28.552Z,100396.27
2022-12-18T05:01:34.553Z,100399.36
2022-12-18T05:06:37.128Z,100408.63
2022-12-18T05:11:38.964Z,100407.39
2022-12-18T05:16:40.910Z,100416.14
2022-12-18T05:21:42.682Z,100417.67
2022-12-18T05:26:44.610Z,100411.50
2022-12-18T05:31:46.394Z,100412.81
2022-12-18T05:36:48.195Z,100421.69
2022-12-18T05:41:50.105Z,100428.35
2022-12-18T05:46:52.038Z,100436.83
2022-12-18T05:51:53.925Z,100441.22
2022-12-18T05:56:55.851Z,100443.12
2022-12-18T06:01:57.732Z,100444.92
2022-12-18T06:06:59.663Z,100450.73
2022-12-18T06:12:01.559Z,100447.73
2022-12-18T06:17:03.398Z,100453.71
2022-12-18T06:22:05.215Z,100455.14
2022-12-18T06:27:07.055Z,100462.55
2022-12-18T06:32:09.520Z,100473.56
2022-12-18T06:37:11.417Z,100481.35
2022-12-18T06:42:13.532Z,100489.40
2022-12-18T06:47:15.505Z,100496.52
2022-12-18T06:52:17.430Z,100502.13
2022-12-18T06:57:19.244Z,100506.60
2022-12-18T07:02:21.172Z,100513.59
2022-12-18T07:07:23.263Z,100517.37
2022-12-18T07:12:25.159Z,100520.91
2022-12-18T07:17:27.377Z,100527.74
2022-12-18T07:22:29.159Z,100526.59
2022-12-18T07:27:30.980Z,100528.26
2022-12-18T07:32:32.952Z,100541.30
2022-12-18T07:37:34.852Z,100541.98
2022-12-18T07:42:37.943Z,100543.42
2022-12-18T07:47:42.207Z,100548.26
2022-12-18T07:52:43.959Z,100545.98
2022-12-18T07:57:51.278Z,100548.15
2022-12-18T08:02:54.643Z,100545.54
2022-12-18T08:07:57.265Z,100553.25
2022-12-18T08:13:04.667Z,100555.91
2022-12-18T08:18:11.337Z,100559.36
2022-12-18T08:23:15.833Z,100562.34
2022-12-18T08:28:18.215Z,100571.54
2022-12-18T08:33:20.123Z,100575.16
2022-12-18T08:38:22.084Z,100581.02
2022-12-18T08:43:42.939Z,100583.75
2022-12-18T08:48:45.153Z,100595.60
2022-12-18T08:53:47.343Z,100606.73
2022-12-18T08:58:53.128Z,100611.02
2022-12-18T09:03:55.003Z,100614.14
2022-12-18T09:08:58.412Z,100613.33
2022-12-18T09:14:01.888Z,100615.52
2022-12-18T09:19:05.478Z,100626.15
2022-12-18T09:24:08.514Z,100625.51
2022-12-18T09:29:11.099Z,100626.59
2022-12-18T09:34:13.300Z,100620.70
2022-12-18T09:39:15.313Z,100621.90
2022-12-18T09:44:44.462Z,100620.89
2022-12-18T09:49:51.174Z,100612.59
2022-12-18T09:55:00.300Z,100616.23
2022-12-18T10:00:22.819Z,100622.13
2022-12-18T10:05:44.820Z,100621.98
2022-12-18T10:11:11.887Z,100617.56
2022-12-18T10:16:42.943Z,100615.34
2022-12-18T10:22:14.211Z,100601.95
2022-12-18T10:27:22.992Z,100606.80
2022-12-18T10:32:27.869Z,100598.92
2022-12-18T10:37:31.020Z,100592.80
2022-12-18T10:42:32.819Z,100589.40
2022-12-18T10:47:35.513Z,100582.70
2022-12-18T10:52:40.807Z,100578.36
2022-12-18T10:57:45.376Z,100580.41
2022-12-18T11:02:47.451Z,100575.97
2022-12-18T11:07:51.589Z,100565.01
2022-12-18T11:12:53.404Z,100560.98
2022-12-18T11:17:55.346Z,100557.48
2022-12-18T11:23:06.613Z,100560.85
2022-12-18T11:28:30.294Z,100567.05
2022-12-18T11:33:32.149Z,100572.60
2022-12-18T11:38:38.453Z,100581.97
2022-12-18T11:43:55.256Z,100582.90
2022-12-18T11:49:05.865Z,100588.02
2022-12-18T11:54:14.828Z,100586.27
2022-12-18T11:59:26.777Z,100591.25
2022-12-18T12:04:41.556Z,100591.83
2022-12-18T12:09:58.805Z,100592.17
2022-12-18T12:15:38.972Z,100598.50
2022-12-18T12:20:53.994Z,100592.44
2022-12-18T12:26:13.505Z,100606.23
2022-12-18T12:31:44.537Z,100613.79
2022-12-18T12:37:21.873Z,100613.04
2022-12-18T12:42:59.386Z,100617.00
2022-12-18T12:48:04.929Z,100629.11
2022-12-18T12:53:16.096Z,100618.90
2022-12-18T12:58:34.944Z,100611.66
2022-12-18T13:04:04.874Z,100610.66
2022-12-18T13:09:07.045Z,100615.23
2022-12-18T13:14:25.267Z,100619.86
2022-12-18T13:19:27.676Z,100626.23
2022-12-18T13:24:32.269Z,100629.61
2022-12-18T13:29:46.866Z,100633.61
2022-12-18T13:34:49.604Z,100634.70
2022-12-18T13:39:51.350Z,100633.95
2022-12-18T13:44:53.124Z,100633.19
2022-12-18T13:49:58.206Z,100628.26
2022-12-18T13:55:03.839Z,100622.61
2022-12-18T14:00:24.250Z,100619.27
2022-12-18T14:05:32.189Z,100618.23
2022-12-18T14:10:48.005Z,100618.04
2022-12-18T14:15:52.350Z,100620.60
2022-12-18T14:21:00.206Z,100621.86
2022-12-18T14:26:06.171Z,100626.35
2022-12-18T14:31:19.311Z,100625.02
2022-12-18T14:36:24.568Z,100622.77
2022-12-18T14:41:27.347Z,100629.09
2022-12-18T14:46:36.690Z,100639.77
2022-12-18T14:51:38.484Z,100643.09
2022-12-18T14:56:47.117Z,100649.03
2022-12-18T15:02:02.848Z,100654.34
2022-12-18T15:07:05.756Z,100658.64
2022-12-18T15:12:25.828Z,100663.85
2022-12-18T15:17:28.202Z,100664.20
2022-12-18T15:22:38.948Z,100669.98
2022-12-18T15:27:47.644Z,100671.75
2022-12-18T15:32:50.666Z,100678.47
2022-12-18T15:37:53.276Z,100672.58
2022-12-18T15:43:14.859Z,100685.06
2022-12-18T15:48:23.786Z,100697.40
2022-12-18T15:53:30.487Z,100703.78
2022-12-18T15:58:32.279Z,100704.05
2022-12-18T16:03:34.147Z,100696.86
2022-12-18T16:08:36.120Z,100699.54
2022-12-18T16:13:38.223Z,100700.40
2022-12-18T16:18:40.814Z,100707.95
2022-12-18T16:23:42.883Z,100707.33
2022-12-18T16:28:48.372Z,100701.44
2022-12-18T16:33:50.478Z,100703.89
2022-12-18T16:38:52.272Z,100697.50
2022-12-18T16:43:55.103Z,100695.13
2022-12-18T16:49:00.900Z,100693.86
2022-12-18T16:54:07.985Z,100677.13
2022-12-18T16:59:13.352Z,100672.92
2022-12-18T17:04:17.062Z,100664.52
2022-12-18T17:09:26.141Z,100657.73
2022-12-18T17:14:27.947Z,100654.27
2022-12-18T17:19:29.898Z,100654.08
2022-12-18T17:24:35.015Z,100654.23
2022-12-18T17:29:41.149Z,100647.48
2022-12-18T17:34:47.166Z,100658.61
2022-12-18T17:39:49.014Z,100663.17
2022-12-18T17:44:50.863Z,100665.34
2022-12-18T17:49:52.640Z,100659.23
2022-12-18T17:54:55.353Z,100658.41
2022-12-18T17:59:57.189Z,100662.23
2022-12-18T18:04:58.951Z,100666.90
2022-12-18T18:10:00.730Z,100668.98
2022-12-18T18:15:02.630Z,100665.00
2022-12-18T18:20:06.192Z,100672.73
2022-12-18T18:25:09.413Z,100670.59
2022-12-18T18:30:12.714Z,100671.80
2022-12-18T18:35:37.542Z,100679.64
2022-12-18T18:40:36.239Z,100674.47
2022-12-18T18:45:38.314Z,100685.95
2022-12-18T18:50:44.006Z,100697.80
2022-12-18T18:55:49.135Z,100718.44
2022-12-18T19:01:05.518Z,100719.79
2022-12-18T19:06:09.442Z,100713.73
2022-12-18T19:11:36.108Z,100709.79
2022-12-18T19:16:39.465Z,100717.38
2022-12-18T19:21:41.627Z,100716.13
2022-12-18T19:26:43.814Z,100722.85
2022-12-18T19:31:45.791Z,100733.55
2022-12-18T19:36:48.633Z,100728.90
2022-12-18T19:41:51.896Z,100722.30
2022-12-18T19:46:53.789Z,100714.75
2022-12-18T19:51:55.653Z,100715.96
2022-12-18T19:56:57.459Z,100713.84
2022-12-18T20:01:59.377Z,100715.08
2022-12-18T20:07:01.727Z,100709.70
2022-12-18T20:12:04.264Z,100705.67
2022-12-18T20:17:06.160Z,100706.66
2022-12-18T20:22:08.476Z,100708.08
2022-12-18T20:27:15.200Z,100702.15
2022-12-18T20:32:19.215Z,100695.87
2022-12-18T20:37:21.151Z,100692.94
2022-12-18T20:42:23.144Z,100692.46
2022-12-18T20:47:26.339Z,100683.41
2022-12-18T20:52:28.567Z,100678.57
2022-12-18T20:57:30.346Z,100672.98
2022-12-18T21:02:32.489Z,100677.69
2022-12-18T21:07:34.424Z,100676.14
2022-12-18T21:13:00.244Z,100673.05
2022-12-18T21:18:01.003Z,100673.14
2022-12-18T21:23:13.210Z,100671.98
2022-12-18T21:28:17.937Z,100661.76
2022-12-18T21:33:19.735Z,100659.77
2022-12-18T21:38:21.584Z,100663.09
2022-12-18T21:43:42.057Z,100666.79
2022-12-18T21:48:44.163Z,100665.01
2022-12-18T21:53:45.877Z,100665.63
2022-12-18T21:58:57.097Z,100666.36
2022-12-18T22:03:59.448Z,100668.92
2022-12-18T22:09:01.246Z,100665.91
2022-12-18T22:14:06.575Z,100669.70
2022-12-18T22:19:11.446Z,100673.90
2022-12-18T22:24:16.462Z,100667.89
2022-12-18T22:29:41.928Z,100668.70
2022-12-18T22:34:43.821Z,100662.83
2022-12-18T22:39:45.760Z,100664.10
2022-12-18T22:44:48.027Z,100662.05
2022-12-18T22:49:49.819Z,100658.08
2022-12-18T22:54:53.750Z,100653.77
2022-12-18T22:59:55.925Z,100663.33
2022-12-18T23:04:57.718Z,100667.33
2022-12-18T23:10:01.199Z,100659.58
2022-12-18T23:15:05.107Z,100669.10
2022-12-18T23:20:07.236Z,100668.95
2022-12-18T23:25:09.527Z,100661.55
2022-12-18T23:30:12.192Z,100652.36
2022-12-18T23:35:15.787Z,100642.55
2022-12-18T23:40:18.153Z,100638.39
2022-12-18T23:45:20.204Z,100625.79
2022-12-18T23:50:26.728Z,100612.05
2022-12-18T23:55:31.771Z,100610.29
